Portada
METAR-TAF:

METAR-TAF

Aeroports :

Tongatapu, Tonga

latitud: 21-14S, longitud: 175-09W, altitud: 38 m

Observació

L'informe es va fer fa 32 minuts, a les 10:00 UTC
Vent 13 kt del Sud/Sud-Oest
Temperatura 25°C
Humitat 83%
Pressió 1009 hPa
Visibilitat 10 km o més
Núvols disperses a una alçada de 1600 ft, Cumulus congestus.

METAR: NFTF 091000Z 21013KT 9999 SCT016TCU 25/22 Q1009

Hora: 23:32 (10:32 UTC)

Pronòstic

L'informe es va fer fa 5 hores i 21 minuts, a les 05:11 UTC
Pronòstic vàlid del 09 a les 06 UTC al 10 a les 06 UTC
Vent 14 kt del Sud-Oest
Visibilitat 10 km o més
Escasses núvols a una alçada de 1700 ft
Cel ennuvolat a una alçada de 10000 ft
Probabilitat 40% :
Temporalment
l' 09 a les 06 UTC al 09 a les 18 UTC
Vent 15 kt del Sud-Oest amb ràfegues de 25 kt
Visibilitat: 5000 m
Cel ennuvolat a una alçada de 1500 ft
xàfecs de pluja

TAF: NFTF 090511Z 0906/1006 22014KT 9999 FEW017 BKN100 PROB40 TEMPO 0906/0918 23015G25KT 5000 SHRA BKN015

Observacions i pronòstics meteorològics de més de 4000 aeroports (METAR i TAF).

Les estacions disponibles són els punts grocs i vermells al mapa.

Posi el ratolí al punt desitjat per veure el nom de l'estació.

Feu clic per veure les observacions i els pronòstics meteorològics.

Per canviar el mapa: feu clic els botons verds amb una creu de color negre per apropar; al botó verd amb un guió per allunyar la imatge; o en les fletxes verdes per a mapes adjacents.


METAR-TAF: